Flight Track Log - Related Links

Times and Time Zones

All times are in EST time to prevent confusion due to time zone crossing. See the SWA3634 flight status page for this flight to view local times or setup timezone preferences in your user account.

Time Position Orientation Groundspeed Altitude Reporting Facility
EST Latitude Longitude Course Direction KTS MPH feet Rate Location/Type
12:29PM 36.1333 -86.6500 47° Northeast 141 162 1,800  Level Nashville TRACON
12:30PM 36.1833 -86.5833 47° Northeast 242 278 5,300 3,503 Climbing Nashville TRACON
12:32PM 36.1756 -86.4256 93° East 317 365 11,900 3,988 Climbing Memphis Center
12:33PM 36.1428 -86.3142 110° East 326 375 16,000 3,700 Climbing Memphis Center
12:34PM 36.1075 -86.1950 110° East 359 413 19,300 3,100 Climbing Memphis Center
12:35PM 36.0717 -86.0661 109° East 377 434 22,200 2,600 Climbing Memphis Center
12:36PM 36.0603 -85.9153 95° East 419 482 24,500 1,657 Climbing Memphis Center
12:38PM 36.0381 -85.6025 95° East 476 548 27,200 1,525 Climbing Atlanta Center
12:39PM 36.0253 -85.4303 95° East 488 562 29,100 2,000 Climbing Atlanta Center
12:40PM 36.0189 -85.2531 93° East 502 578 31,200 2,200 Climbing Atlanta Center
12:41PM 36.0603 -85.0714 74° East 521 600 33,500 2,200 Climbing Atlanta Center
12:42PM 36.1075 -84.8894 72° East 532 612 35,600 1,750 Climbing Atlanta Center
12:43PM 36.1567 -84.6867 73° East 542 624 37,000 1,750 Climbing Atlanta Center
12:44PM 36.2033 -84.5069 72° East 549 632 39,100 1,835 Climbing Atlanta Center
12:45PM 36.2456 -84.3322 73° East 543 625 40,700 900 Climbing Atlanta Center
12:46PM 36.2919 -84.1547 72° East 538 619 40,900 101 Climbing Atlanta Center
12:47PM 36.3336 -83.9742 74° East 538 619 40,900  Level Atlanta Center
12:48PM 36.3772 -83.7989 73° East 538 619 40,900  Level Atlanta Center
12:49PM 36.4206 -83.6208 73° East 538 619 40,900  Level Atlanta Center
12:50PM 36.4636 -83.4397 73° East 538 619 40,900  Level Atlanta Center
12:51PM 36.5064 -83.2614 73° East 538 619 40,900  Level Atlanta Center
12:52PM 36.5508 -83.0825 73° East 538 619 40,900  Level Atlanta Center
12:53PM 36.5931 -82.9011 74° East 538 619 40,900  Level Atlanta Center
12:54PM 36.6331 -82.7194 75° East 538 619 40,900 -100 Level Atlanta Center
12:55PM 36.6769 -82.5375 73° East 538 619 40,700 -550 Descending Atlanta Center
12:56PM 36.7203 -82.3553 73° East 538 619 39,800 -950 Descending Atlanta Center
12:57PM 36.7636 -82.1731 73° East 538 619 38,800 600 Descending Atlanta Center
12:58PM 36.8044 -81.9906 74° East 538 619 41,000 -2,250 Climbing Atlanta Center
12:59PM 36.8492 -81.8003 74° East 552 635 34,300 -3,950 Descending Atlanta Center
01:00PM 36.8892 -81.6122 75° East 557 641 33,100 -1,100 Descending Atlanta Center
01:01PM 36.9214 -81.4503 76° East 551 634 32,100 -1,000 Descending Atlanta Center
01:02PM 36.9614 -81.2697 74° East 539 620 31,100 -1,000 Descending Atlanta Center
01:03PM 37.0031 -81.0942 73° East 533 613 30,100 -1,286 Descending Atlanta Center
01:05PM 37.0694 -80.7928 74° East 507 583 27,500 -1,120 Descending Washington Center
01:06PM 37.0792 -80.6139 86° East 484 557 27,000 -254 Descending Washington Center
01:07PM 37.0714 -80.4494 93° East 466 536 27,000  Level Washington Center
01:08PM 37.0614 -80.2872 94° East 466 536 27,000  Level Washington Center
01:09PM 37.0508 -80.1278 95° East 466 536 27,000 -397 Level Washington Center
01:10PM 37.0247 -79.9858 103° East 466 536 26,200 -504 Descending Washington Center
01:11PM 36.9736 -79.8453 114° Southeast 452 520 26,000 -966 Descending Washington Center
01:12PM 36.9411 -79.6978 105° East 446 513 24,300 -984 Descending Washington Center
01:13PM 36.9217 -79.5306 98° East 446 513 24,000 -148 Descending Washington Center
01:14PM 36.9078 -79.3817 97° East 439 505 24,000 -900 Level Washington Center
01:15PM 36.8872 -79.2328 100° East 433 498 22,200 -1,068 Descending Washington Center
01:16PM 36.8725 -79.1022 98° East 428 493 21,900 -1,169 Descending Washington Center
01:17PM 36.8533 -78.9664 100° East 416 479 19,900 -1,488 Descending Washington Center
01:18PM 36.7939 -78.8547 124° Southeast 386 444 18,900 -934 Descending Washington Center
01:19PM 36.7158 -78.8075 154° Southeast 331 381 18,000 -555 Descending Washington Center
01:20PM 36.6333 -78.8481 202° Southwest 266 306 17,800 -742 Descending Washington Center
01:20PM 36.5808 -78.8667 196° South 286 329 16,800 -1,600 Descending Washington Center
01:21PM 36.5533 -78.8808 202° Southwest 274 315 16,200 -2,000 Descending Washington Center
01:21PM 36.5344 -78.8853 191° South 291 335 15,600 -2,417 Descending Washington Center
01:22PM 36.4628 -78.9106 196° South 287 330 13,300 -2,377 Descending Washington Center
01:23PM 36.3994 -78.9389 200° South 286 329 11,400 -2,060 Descending Washington Center
01:23PM 36.3725 -78.9325 169° South 300 345 11,000 -393 Descending Washington Center
01:24PM 36.3167 -78.9097 162° South 286 329 11,000  Level Washington Center
01:24PM 36.2942 -78.8958 154° Southeast 313 360 11,000 -1,241 Level Washington Center
01:25PM 36.2536 -78.8528 139° Southeast 294 338 9,800 -1,672 Descending Washington Center
01:25PM 36.2250 -78.8286 146° Southeast 314 361 9,300 -885 Descending Washington Center
01:26PM 36.1844 -78.7831 138° Southeast 299 344 8,900 -621 Descending Washington Center
01:26PM 36.1642 -78.7669 147° Southeast 280 322 8,700 -700 Descending Washington Center
01:27PM 36.1553 -78.7047 100° East 258 297 8,200 -667 Descending Washington Center
01:27PM 36.1519 -78.6764 98° East 257 296 8,000 -689 Descending Washington Center
01:28PM 36.1344 -78.6267 114° Southeast 241 277 7,500 -882 Descending Washington Center
01:28PM 36.1122 -78.5950 131° Southeast 245 282 7,000 -1,138 Descending Washington Center
01:29PM 36.0897 -78.5711 139° Southeast 241 277 6,400 -1,300 Descending Washington Center
01:29PM 36.0567 -78.5647 171° South 222 255 5,700 -1,100 Descending Washington Center
01:30PM 36.0275 -78.5583 170° South 209 241 5,300 -1,082 Descending Washington Center
01:30PM 36.0103 -78.5833 230° Southwest 196 226 4,600 -1,435 Descending Washington Center
01:31PM 35.9836 -78.6442 242° Southwest 192 221 3,100 -1,339 Descending Washington Center
01:32PM 35.9492 -78.6914 228° Southwest 195 224 1,900 -737 Descending Washington Center
01:33PM 35.9167 -78.7314 225° Southwest 175 201 1,700 -522 Descending Washington Center
01:34PM 35.8886 -78.7661 225° Southwest 136 157 900 -787 Descending Washington Center
01:36PM 35.8776 -78.7875 68° East  Level Estimated
01:43PM 35.8776 -78.7875 90° East  Level Estimated

Login

Don't have an account? Register now (free) for customized features, flight alerts, and more!